createdAt,value
2019-03-22T00:00:20.393Z,11.50
2019-03-22T00:02:48.781Z,9.83
2019-03-22T00:05:17.194Z,10.23
2019-03-22T00:08:04.931Z,11.57
2019-03-22T00:10:33.358Z,9.40
2019-03-22T00:13:01.755Z,12.60
2019-03-22T00:15:30.150Z,11.73
2019-03-22T00:17:58.704Z,9.53
2019-03-22T00:20:27.206Z,10.83
2019-03-22T00:22:55.634Z,11.60
2019-03-22T00:25:24.687Z,11.07
2019-03-22T00:27:53.106Z,12.00
2019-03-22T00:30:21.627Z,11.77
2019-03-22T00:32:50.142Z,9.87
2019-03-22T00:35:18.659Z,9.30
2019-03-22T00:37:47.062Z,10.00
2019-03-22T00:40:15.510Z,11.87
2019-03-22T00:42:43.966Z,11.97
2019-03-22T00:45:12.636Z,11.43
2019-03-22T00:47:41.035Z,9.50
2019-03-22T00:50:11.863Z,10.17
2019-03-22T00:52:40.434Z,8.10
2019-03-22T00:55:09.281Z,10.67
2019-03-22T00:57:37.694Z,9.07
2019-03-22T01:00:11.699Z,12.17
2019-03-22T01:02:40.940Z,9.23
2019-03-22T01:05:11.059Z,13.43
2019-03-22T01:07:39.455Z,10.53
2019-03-22T01:10:12.770Z,12.23
2019-03-22T01:12:41.286Z,14.83
2019-03-22T01:15:11.507Z,8.90
2019-03-22T01:17:39.982Z,13.40
2019-03-22T01:20:09.914Z,11.23
2019-03-22T01:22:38.326Z,11.63
2019-03-22T01:25:08.686Z,10.63
2019-03-22T01:27:40.812Z,11.77
2019-03-22T01:30:12.967Z,9.60
2019-03-22T01:32:41.363Z,10.47
2019-03-22T01:35:10.046Z,14.20
2019-03-22T01:37:38.450Z,11.37
2019-03-22T01:40:08.796Z,14.30
2019-03-22T01:42:37.276Z,10.70
2019-03-22T01:45:08.843Z,13.00
2019-03-22T01:47:37.570Z,9.10
2019-03-22T01:50:08.786Z,12.00
2019-03-22T01:52:37.741Z,10.67
2019-03-22T01:55:06.967Z,9.53
2019-03-22T01:57:35.383Z,6.70
2019-03-22T02:00:06.293Z,11.50
2019-03-22T02:02:34.762Z,11.33
2019-03-22T02:05:03.398Z,11.70
2019-03-22T02:07:31.875Z,13.97
2019-03-22T02:10:19.624Z,7.87
2019-03-22T02:12:48.036Z,11.20
2019-03-22T02:15:16.800Z,12.03
2019-03-22T02:17:45.277Z,9.77
2019-03-22T02:20:15.318Z,9.50
2019-03-22T02:22:44.287Z,12.07
2019-03-22T02:25:13.016Z,8.03
2019-03-22T02:27:42.283Z,8.57
2019-03-22T02:30:13.850Z,8.97
2019-03-22T02:32:42.369Z,11.17
2019-03-22T02:35:26.892Z,13.63
2019-03-22T02:37:41.079Z,11.00
2019-03-22T02:40:11.415Z,10.10
2019-03-22T02:42:39.806Z,8.93
2019-03-22T02:45:11.341Z,10.00
2019-03-22T02:47:39.731Z,8.90
2019-03-22T02:50:18.183Z,11.43
2019-03-22T02:52:40.778Z,12.50
2019-03-22T02:55:10.502Z,12.40
2019-03-22T02:57:38.935Z,9.27
2019-03-22T03:00:15.183Z,11.47
2019-03-22T03:02:43.756Z,9.20
2019-03-22T03:05:13.013Z,14.30
2019-03-22T03:07:49.338Z,10.20
2019-03-22T03:10:17.811Z,10.53
2019-03-22T03:12:46.616Z,13.00
2019-03-22T03:15:18.922Z,11.93
2019-03-22T03:17:47.559Z,10.50
2019-03-22T03:20:37.023Z,9.17
2019-03-22T03:23:05.410Z,10.00
2019-03-22T03:25:33.819Z,11.40
2019-03-22T03:28:02.234Z,12.57
2019-03-22T03:30:30.656Z,12.30
2019-03-22T03:32:59.333Z,11.73
2019-03-22T03:35:27.761Z,10.80
2019-03-22T03:37:56.244Z,9.83
2019-03-22T03:40:24.729Z,7.43
2019-03-22T03:42:53.181Z,12.80
2019-03-22T03:45:33.021Z,12.47
2019-03-22T03:48:02.843Z,9.73
2019-03-22T03:50:31.238Z,8.30
2019-03-22T03:52:59.680Z,10.90
2019-03-22T03:55:28.820Z,11.00
2019-03-22T03:57:57.988Z,8.77
2019-03-22T04:00:26.399Z,14.60
2019-03-22T04:02:54.809Z,10.90
2019-03-22T04:05:23.211Z,10.33
2019-03-22T04:07:52.540Z,10.27
2019-03-22T04:10:20.979Z,10.90
2019-03-22T04:12:49.959Z,9.90
2019-03-22T04:15:18.396Z,9.50
2019-03-22T04:17:46.906Z,12.03
2019-03-22T04:20:15.327Z,9.00
2019-03-22T04:22:43.784Z,10.80
2019-03-22T04:25:12.331Z,13.97
2019-03-22T04:27:40.802Z,9.67
2019-03-22T04:30:09.594Z,11.30
2019-03-22T04:32:38.024Z,14.90
2019-03-22T04:35:07.342Z,9.83
2019-03-22T04:37:35.757Z,11.30
2019-03-22T04:40:18.878Z,12.00
2019-03-22T04:42:47.394Z,9.03
2019-03-22T04:45:15.950Z,12.07
2019-03-22T04:47:46.091Z,13.17
2019-03-22T04:50:15.039Z,11.30
2019-03-22T04:52:43.726Z,15.13
2019-03-22T04:55:12.583Z,9.23
2019-03-22T04:57:42.324Z,10.37
2019-03-22T05:00:12.263Z,12.03
2019-03-22T05:02:41.966Z,11.73
2019-03-22T05:05:12.962Z,14.43
2019-03-22T05:07:42.592Z,8.60
2019-03-22T05:10:13.492Z,9.07
2019-03-22T05:12:43.131Z,13.47
2019-03-22T05:15:14.683Z,12.50
2019-03-22T05:17:43.934Z,10.30
2019-03-22T05:20:12.987Z,9.17
2019-03-22T05:22:42.634Z,10.80
2019-03-22T05:25:11.524Z,10.30
2019-03-22T05:27:42.418Z,14.43
2019-03-22T05:30:16.538Z,11.07
2019-03-22T05:32:44.956Z,11.80
2019-03-22T05:35:13.361Z,11.43
2019-03-22T05:37:41.774Z,14.40
2019-03-22T05:40:10.331Z,13.97
2019-03-22T05:42:38.895Z,10.53
2019-03-22T05:45:07.522Z,12.43
2019-03-22T05:47:35.961Z,12.83
2019-03-22T05:50:05.893Z,13.37
2019-03-22T05:52:34.292Z,10.80
2019-03-22T05:55:02.765Z,11.60
2019-03-22T05:57:31.154Z,11.77
2019-03-22T05:59:59.847Z,11.17
2019-03-22T06:02:28.270Z,19.13
2019-03-22T06:04:56.662Z,12.57
2019-03-22T06:07:25.082Z,9.97
2019-03-22T06:09:53.506Z,12.67
2019-03-22T06:12:21.906Z,12.03
2019-03-22T06:14:50.312Z,12.13
2019-03-22T06:17:18.716Z,9.37
2019-03-22T06:19:47.119Z,12.60
2019-03-22T06:22:15.554Z,11.70
2019-03-22T06:24:44.057Z,11.30
2019-03-22T06:27:12.454Z,12.27
2019-03-22T06:29:40.866Z,10.20
2019-03-22T06:32:09.263Z,15.23
2019-03-22T06:34:37.690Z,10.67
2019-03-22T06:37:06.095Z,11.40
2019-03-22T06:39:34.494Z,10.90
2019-03-22T06:42:03.240Z,11.67
2019-03-22T06:44:32.059Z,11.43
2019-03-22T06:47:00.458Z,10.47
2019-03-22T06:49:29.332Z,9.87
2019-03-22T06:51:57.718Z,10.00
2019-03-22T06:54:31.396Z,10.87
2019-03-22T06:56:56.245Z,9.67
2019-03-22T06:59:24.707Z,10.60
2019-03-22T07:01:53.107Z,8.93
2019-03-22T07:04:21.536Z,10.90
2019-03-22T07:06:49.973Z,12.50
2019-03-22T07:09:18.370Z,11.27
2019-03-22T07:11:46.914Z,10.83
2019-03-22T07:14:15.309Z,11.03
2019-03-22T07:16:43.727Z,16.77
2019-03-22T07:19:12.123Z,12.30
2019-03-22T07:21:40.516Z,11.13
2019-03-22T07:24:09.067Z,12.27
2019-03-22T07:26:56.948Z,15.73
2019-03-22T07:29:25.361Z,17.57
2019-03-22T07:31:53.753Z,16.67
2019-03-22T07:34:22.173Z,14.00
2019-03-22T07:36:50.946Z,15.03
2019-03-22T07:39:19.359Z,14.23
2019-03-22T07:41:47.751Z,12.10
2019-03-22T07:44:16.462Z,13.93
2019-03-22T07:46:44.851Z,15.23
2019-03-22T07:49:13.238Z,11.87
2019-03-22T07:51:41.656Z,11.20
2019-03-22T07:54:10.043Z,13.07
2019-03-22T07:56:38.447Z,9.83
2019-03-22T07:59:09.656Z,9.70
2019-03-22T08:01:37.055Z,11.53
2019-03-22T08:04:05.450Z,10.23
2019-03-22T08:06:34.153Z,10.23
2019-03-22T08:09:04.417Z,11.27
2019-03-22T08:11:32.811Z,11.67
2019-03-22T08:14:01.315Z,9.43
2019-03-22T08:16:29.756Z,9.27
2019-03-22T08:18:58.195Z,10.90
2019-03-22T08:21:26.612Z,11.93
2019-03-22T08:23:55.030Z,10.73
2019-03-22T08:26:23.399Z,11.07
2019-03-22T08:28:51.969Z,11.73
2019-03-22T08:31:20.353Z,13.80
2019-03-22T08:33:48.746Z,12.50
2019-03-22T08:36:17.242Z,13.27
2019-03-22T08:38:45.653Z,11.73
2019-03-22T08:41:14.066Z,15.27
2019-03-22T08:43:42.468Z,12.43
2019-03-22T08:46:10.880Z,12.23
2019-03-22T08:48:39.260Z,14.77
2019-03-22T08:51:07.664Z,12.17
2019-03-22T08:53:36.065Z,10.03
2019-03-22T08:56:04.534Z,11.40
2019-03-22T08:58:32.935Z,13.60
2019-03-22T09:01:01.424Z,15.03
2019-03-22T09:03:29.892Z,13.00
2019-03-22T09:05:58.290Z,13.30
2019-03-22T09:08:26.736Z,11.33
2019-03-22T09:10:55.304Z,11.00
2019-03-22T09:13:23.731Z,13.27
2019-03-22T09:15:52.134Z,10.70
2019-03-22T09:18:20.561Z,13.97
2019-03-22T09:20:49.000Z,11.17
2019-03-22T09:23:17.456Z,14.37
2019-03-22T09:25:45.976Z,12.90
2019-03-22T09:28:14.423Z,15.17
2019-03-22T09:30:43.107Z,11.93
2019-03-22T09:33:13.423Z,13.97
2019-03-22T09:35:41.673Z,13.17
2019-03-22T09:38:13.051Z,12.57
2019-03-22T09:40:40.240Z,13.50
2019-03-22T09:43:08.705Z,14.63
2019-03-22T09:45:37.297Z,13.53
2019-03-22T09:48:06.282Z,14.00
2019-03-22T09:50:34.891Z,12.27
2019-03-22T09:53:03.349Z,17.13
2019-03-22T09:55:31.841Z,15.90
2019-03-22T09:58:00.279Z,14.40
2019-03-22T10:00:32.944Z,16.90
2019-03-22T10:03:01.946Z,14.07
2019-03-22T10:05:30.351Z,15.77
2019-03-22T10:07:58.763Z,16.17
2019-03-22T10:10:27.197Z,14.73
2019-03-22T10:12:55.589Z,16.13
2019-03-22T10:15:24.001Z,13.07
2019-03-22T10:17:52.787Z,14.37
2019-03-22T10:20:21.206Z,17.43
2019-03-22T10:22:49.825Z,14.17
2019-03-22T10:25:18.312Z,18.33
2019-03-22T10:27:46.759Z,15.13
2019-03-22T10:30:17.537Z,13.50
2019-03-22T10:32:45.997Z,15.70
2019-03-22T10:35:25.348Z,13.20
2019-03-22T10:37:45.115Z,12.03
2019-03-22T10:40:13.770Z,15.00
2019-03-22T10:43:01.589Z,13.53
2019-03-22T10:45:30.194Z,13.70
2019-03-22T10:47:58.769Z,11.83
2019-03-22T10:50:27.317Z,14.43
2019-03-22T10:52:55.845Z,12.93
2019-03-22T10:55:30.177Z,11.83
2019-03-22T10:57:55.543Z,16.30
2019-03-22T11:00:24.246Z,15.63
2019-03-22T11:02:52.738Z,15.13
2019-03-22T11:05:21.140Z,16.23
2019-03-22T11:07:49.535Z,16.27
2019-03-22T11:10:17.973Z,17.07
2019-03-22T11:12:46.362Z,14.73
2019-03-22T11:15:15.502Z,14.23
2019-03-22T11:17:43.919Z,12.80
2019-03-22T11:20:15.793Z,14.07
2019-03-22T11:22:44.305Z,16.37
2019-03-22T11:25:13.143Z,14.53
2019-03-22T11:27:41.542Z,12.97
2019-03-22T11:30:13.066Z,16.30
2019-03-22T11:32:41.557Z,16.30
2019-03-22T11:35:10.926Z,15.03
2019-03-22T11:37:39.327Z,12.43
2019-03-22T11:40:16.854Z,12.23
2019-03-22T11:42:45.425Z,10.57
2019-03-22T11:45:19.882Z,14.43
2019-03-22T11:47:48.547Z,13.77
2019-03-22T11:50:18.933Z,12.47
2019-03-22T11:52:47.352Z,12.30
2019-03-22T11:55:16.101Z,12.13
2019-03-22T11:57:44.508Z,11.13
2019-03-22T12:00:26.307Z,13.00
2019-03-22T12:02:54.828Z,14.80
2019-03-22T12:05:23.546Z,11.07
2019-03-22T12:07:51.942Z,11.83
2019-03-22T12:10:21.861Z,12.47
2019-03-22T12:12:50.268Z,11.40
2019-03-22T12:15:22.974Z,12.00
2019-03-22T12:17:51.390Z,12.70
2019-03-22T12:20:23.886Z,11.90
2019-03-22T12:22:52.738Z,13.47
2019-03-22T12:25:23.474Z,10.07
2019-03-22T12:27:51.884Z,10.57
2019-03-22T12:30:20.347Z,12.17
2019-03-22T12:32:48.759Z,10.53
2019-03-22T12:35:17.794Z,10.20
2019-03-22T12:37:46.645Z,10.50
2019-03-22T12:40:22.255Z,9.73
2019-03-22T12:42:50.761Z,11.40
2019-03-22T12:45:32.578Z,10.73
2019-03-22T12:48:01.329Z,9.17
2019-03-22T12:50:29.899Z,9.83
2019-03-22T12:52:58.443Z,10.53
2019-03-22T12:55:26.831Z,8.40
2019-03-22T12:57:55.218Z,7.43
2019-03-22T13:00:26.848Z,10.77
2019-03-22T13:02:56.972Z,9.70
2019-03-22T13:05:25.663Z,7.77
2019-03-22T13:07:54.159Z,7.63
2019-03-22T13:10:25.160Z,7.07
2019-03-22T13:12:53.577Z,8.77
2019-03-22T13:15:22.054Z,6.80
2019-03-22T13:17:50.522Z,9.20
2019-03-22T13:20:20.438Z,9.70
2019-03-22T13:22:48.830Z,10.03
2019-03-22T13:25:17.976Z,8.53
2019-03-22T13:27:46.717Z,9.80
2019-03-22T13:30:21.115Z,10.60
2019-03-22T13:32:52.204Z,8.63
2019-03-22T13:35:19.733Z,7.97
2019-03-22T13:37:48.227Z,10.07
2019-03-22T13:40:16.751Z,8.87
2019-03-22T13:42:45.203Z,9.37
2019-03-22T13:45:14.022Z,11.33
2019-03-22T13:47:42.826Z,10.40
2019-03-22T13:50:11.610Z,10.30
2019-03-22T13:52:40.198Z,11.43
2019-03-22T13:55:09.427Z,10.07
2019-03-22T13:57:38.041Z,8.37
2019-03-22T14:00:19.259Z,7.93
2019-03-22T14:02:47.679Z,7.10
2019-03-22T14:05:16.330Z,7.37
2019-03-22T14:07:44.730Z,8.57
2019-03-22T14:10:35.751Z,7.20
2019-03-22T14:13:26.076Z,7.90
2019-03-22T14:15:54.553Z,9.17
2019-03-22T14:18:22.959Z,13.17
2019-03-22T14:20:51.999Z,8.97
2019-03-22T14:23:20.382Z,9.20
2019-03-22T14:25:48.889Z,8.10
2019-03-22T14:28:17.282Z,9.27
2019-03-22T14:30:45.687Z,12.00
2019-03-22T14:33:14.401Z,9.83
2019-03-22T14:35:42.863Z,10.37
2019-03-22T14:38:11.332Z,10.73
2019-03-22T14:40:39.815Z,16.33
2019-03-22T14:43:08.221Z,8.33
2019-03-22T14:45:36.853Z,9.10
2019-03-22T14:48:05.256Z,11.33
2019-03-22T14:50:34.013Z,10.07
2019-03-22T14:53:02.487Z,9.23
2019-03-22T14:55:31.002Z,8.33
2019-03-22T14:57:59.428Z,7.70
2019-03-22T15:00:27.906Z,10.67
2019-03-22T15:02:56.847Z,9.50
2019-03-22T15:05:26.763Z,7.57
2019-03-22T15:07:56.407Z,9.73
2019-03-22T15:10:24.903Z,8.00
2019-03-22T15:12:56.147Z,8.57
2019-03-22T15:15:32.428Z,7.93
2019-03-22T15:18:08.531Z,10.57
2019-03-22T15:20:55.119Z,9.07
2019-03-22T15:23:30.963Z,10.10
2019-03-22T15:26:03.750Z,8.37
2019-03-22T15:28:39.754Z,9.87
2019-03-22T15:31:24.821Z,8.97
2019-03-22T15:33:57.311Z,9.27
2019-03-22T15:36:43.698Z,12.17
2019-03-22T15:39:30.950Z,8.20
2019-03-22T15:41:59.537Z,7.43
2019-03-22T15:44:28.000Z,8.70
2019-03-22T15:46:56.394Z,9.00
2019-03-22T15:49:24.799Z,8.53
2019-03-22T15:51:53.210Z,6.90
2019-03-22T15:54:21.605Z,9.20
2019-03-22T15:56:57.318Z,7.53
2019-03-22T15:59:25.853Z,6.30
2019-03-22T16:01:54.245Z,6.87
2019-03-22T16:04:22.723Z,6.77
2019-03-22T16:06:51.204Z,8.60
2019-03-22T16:09:19.679Z,8.70
2019-03-22T16:11:48.155Z,7.43
2019-03-22T16:14:16.586Z,6.93
2019-03-22T16:16:44.978Z,9.57
2019-03-22T16:19:13.381Z,10.57
2019-03-22T16:21:41.787Z,6.33
2019-03-22T16:24:10.187Z,6.97
2019-03-22T16:26:38.598Z,10.80
2019-03-22T16:29:07.044Z,7.20
2019-03-22T16:31:35.623Z,9.07
2019-03-22T16:34:04.043Z,10.33
2019-03-22T16:36:32.655Z,12.93
2019-03-22T16:39:01.050Z,6.90
2019-03-22T16:41:29.470Z,9.47
2019-03-22T16:44:06.750Z,9.09
2019-03-22T16:46:35.422Z,9.47
2019-03-22T16:49:03.858Z,9.77
2019-03-22T16:51:32.510Z,10.57
2019-03-22T16:54:00.974Z,13.13
2019-03-22T16:56:29.387Z,14.57
2019-03-22T16:58:57.918Z,10.67
2019-03-22T17:01:26.311Z,13.37
2019-03-22T17:04:03.898Z,11.07
2019-03-22T17:06:25.030Z,10.40
2019-03-22T17:08:53.460Z,12.57
2019-03-22T17:11:21.850Z,13.80
2019-03-22T17:13:50.270Z,11.60
2019-03-22T17:16:18.862Z,11.10
2019-03-22T17:18:47.265Z,13.47
2019-03-22T17:21:15.905Z,15.13
2019-03-22T17:23:44.318Z,15.30
2019-03-22T17:26:12.724Z,13.30
2019-03-22T17:28:41.223Z,12.80
2019-03-22T17:31:09.711Z,14.20
2019-03-22T17:33:39.141Z,12.40
2019-03-22T17:36:07.844Z,10.40
2019-03-22T17:38:36.247Z,13.53
2019-03-22T17:41:04.710Z,17.10
2019-03-22T17:43:33.119Z,23.00
2019-03-22T17:46:01.557Z,20.30
2019-03-22T17:48:30.061Z,16.40
2019-03-22T17:50:58.493Z,16.97
2019-03-22T17:53:26.985Z,16.30
2019-03-22T17:55:55.447Z,12.80
2019-03-22T17:58:23.834Z,15.87
2019-03-22T18:00:52.505Z,15.37
2019-03-22T18:03:20.924Z,17.33
2019-03-22T18:05:49.330Z,22.87
2019-03-22T18:08:17.718Z,23.57
2019-03-22T18:10:46.192Z,20.87
2019-03-22T18:13:14.606Z,19.40
2019-03-22T18:16:12.902Z,17.07
2019-03-22T18:18:41.391Z,20.70
2019-03-22T18:21:09.803Z,15.67
2019-03-22T18:23:38.195Z,16.83
2019-03-22T18:26:06.722Z,17.17
2019-03-22T18:28:35.470Z,19.37
2019-03-22T18:31:03.909Z,23.13
2019-03-22T18:33:32.339Z,16.50
2019-03-22T18:36:00.733Z,20.07
2019-03-22T18:38:29.134Z,16.30
2019-03-22T18:40:57.555Z,17.93
2019-03-22T18:43:25.947Z,13.53
2019-03-22T18:45:54.336Z,19.00
2019-03-22T18:48:22.747Z,18.27
2019-03-22T18:50:56.769Z,19.97
2019-03-22T18:53:21.297Z,19.57
2019-03-22T18:55:49.695Z,16.80
2019-03-22T18:58:18.150Z,17.73
2019-03-22T19:00:46.539Z,21.53
2019-03-22T19:03:14.931Z,18.30
2019-03-22T19:05:44.015Z,19.97
2019-03-22T19:08:12.562Z,21.53
2019-03-22T19:10:40.982Z,21.00
2019-03-22T19:13:09.639Z,24.50
2019-03-22T19:15:38.250Z,22.30
2019-03-22T19:18:06.703Z,20.23
2019-03-22T19:20:35.193Z,24.77
2019-03-22T19:23:03.601Z,22.70
2019-03-22T19:25:31.994Z,18.53
2019-03-22T19:28:00.917Z,23.63
2019-03-22T19:30:29.452Z,20.57
2019-03-22T19:32:58.014Z,23.50
2019-03-22T19:35:26.456Z,21.70
2019-03-22T19:37:54.896Z,25.63
2019-03-22T19:40:23.318Z,24.43
2019-03-22T19:42:51.781Z,20.93
2019-03-22T19:45:20.505Z,22.97
2019-03-22T19:47:49.150Z,23.50
2019-03-22T19:50:17.805Z,20.97
2019-03-22T19:52:46.278Z,22.27
2019-03-22T19:55:14.765Z,24.33
2019-03-22T19:57:43.173Z,24.97
2019-03-22T20:00:17.314Z,31.47
2019-03-22T20:02:45.761Z,27.13
2019-03-22T20:05:28.701Z,25.20
2019-03-22T20:07:57.719Z,26.13
2019-03-22T20:10:26.277Z,26.30
2019-03-22T20:12:54.739Z,25.43
2019-03-22T20:15:24.401Z,22.93
2019-03-22T20:17:52.862Z,24.53
2019-03-22T20:20:21.361Z,25.30
2019-03-22T20:22:49.769Z,27.90
2019-03-22T20:25:18.225Z,21.10
2019-03-22T20:27:46.612Z,24.53
2019-03-22T20:30:16.850Z,20.10
2019-03-22T20:32:45.749Z,21.73
2019-03-22T20:35:16.753Z,21.03
2019-03-22T20:37:44.600Z,28.13
2019-03-22T20:40:17.987Z,24.47
2019-03-22T20:42:46.687Z,23.40
2019-03-22T20:45:23.601Z,22.17
2019-03-22T20:47:45.307Z,23.97
2019-03-22T20:50:14.168Z,25.07
2019-03-22T20:52:42.611Z,23.47
2019-03-22T20:55:11.626Z,22.70
2019-03-22T20:57:40.134Z,24.03
2019-03-22T21:00:11.264Z,26.43
2019-03-22T21:02:39.767Z,23.33
2019-03-22T21:05:08.314Z,27.50
2019-03-22T21:07:36.742Z,24.37
2019-03-22T21:10:07.277Z,22.93
2019-03-22T21:12:35.746Z,20.70
2019-03-22T21:15:07.089Z,23.93
2019-03-22T21:17:35.626Z,23.93
2019-03-22T21:20:06.902Z,25.00
2019-03-22T21:22:35.525Z,21.47
2019-03-22T21:25:09.457Z,22.60
2019-03-22T21:27:37.859Z,25.63
2019-03-22T21:30:08.669Z,24.67
2019-03-22T21:32:44.655Z,24.57
2019-03-22T21:35:07.639Z,23.20
2019-03-22T21:37:36.311Z,30.97
2019-03-22T21:40:06.726Z,23.80
2019-03-22T21:42:35.153Z,29.27
2019-03-22T21:45:04.681Z,36.60
2019-03-22T21:47:33.178Z,31.37
2019-03-22T21:50:01.592Z,29.63
2019-03-22T21:52:29.987Z,29.27
2019-03-22T21:54:58.405Z,32.77
2019-03-22T21:57:26.866Z,38.03
2019-03-22T21:59:55.345Z,40.83
2019-03-22T22:02:23.819Z,43.27
2019-03-22T22:04:52.434Z,41.43
2019-03-22T22:07:20.867Z,41.73
2019-03-22T22:09:49.653Z,40.33
2019-03-22T22:12:18.142Z,37.80
2019-03-22T22:14:46.896Z,37.10
2019-03-22T22:17:15.406Z,34.17
2019-03-22T22:19:43.829Z,32.60
2019-03-22T22:22:12.232Z,39.20
2019-03-22T22:24:40.828Z,37.20
2019-03-22T22:27:13.660Z,35.57
2019-03-22T22:29:39.437Z,46.20
2019-03-22T22:32:08.151Z,38.93
2019-03-22T22:34:36.594Z,38.40
2019-03-22T22:37:05.135Z,32.57
2019-03-22T22:39:33.606Z,37.87
2019-03-22T22:42:02.007Z,34.13
2019-03-22T22:44:30.430Z,37.90
2019-03-22T22:46:58.879Z,37.40
2019-03-22T22:49:27.302Z,36.47
2019-03-22T22:51:55.991Z,37.23
2019-03-22T22:54:24.387Z,34.70
2019-03-22T22:56:52.784Z,33.23
2019-03-22T22:59:21.202Z,29.37
2019-03-22T23:01:49.614Z,28.80
2019-03-22T23:04:18.027Z,35.27
2019-03-22T23:06:46.418Z,34.47
2019-03-22T23:09:14.830Z,34.00
2019-03-22T23:11:43.222Z,35.97
2019-03-22T23:14:11.659Z,32.13
2019-03-22T23:16:40.058Z,32.30
2019-03-22T23:19:08.504Z,27.90
2019-03-22T23:21:36.882Z,31.17
2019-03-22T23:24:05.938Z,30.97
2019-03-22T23:26:36.353Z,29.17
2019-03-22T23:29:04.819Z,35.97
2019-03-22T23:31:33.541Z,30.80
2019-03-22T23:34:02.198Z,32.43
2019-03-22T23:36:31.300Z,39.77
2019-03-22T23:38:59.716Z,32.60
2019-03-22T23:41:28.175Z,34.80
2019-03-22T23:43:56.724Z,27.20
2019-03-22T23:46:25.170Z,32.10
2019-03-22T23:48:53.566Z,29.60
2019-03-22T23:51:21.970Z,32.30
2019-03-22T23:53:50.362Z,29.40
2019-03-22T23:56:19.014Z,33.57
2019-03-22T23:58:47.414Z,29.87
